Latest Weather Observations for Mount Gellibrand

IDV60801

Issued at 10:31 pm EST Friday 28 August 2015 (issued every 30 minutes, with the page automatically refreshed every 10 minutes)

About weather observations | Map of weather stations | Latest weather observations for VIC | Other Formats
Station Details ID: 090035 Name: MOUNT GELLIBRAND Lat: -38.23 Lon: 143.79 Height: 261.0 m
Data from the previous 72 hours. | See also: Recent months at Mount Gellibrand
Date/Time
EST
Temp
°C
App
Temp
°C
Dew
Point
Rel
Hum
%
Delta-T
°C
Wind Press
QNH
hPa
Press
MSL
hPa
Rain
since 9 am
mm
Dir
 
Spd
km/h
Gust
km/h
Spd
kts
Gust
kts
28/10:30pm 3.9 -1.7 0.1 76 1.4 SW 19 22 10 12 1027.1 1027.5 1.0
28/10:00pm 4.2 -0.9 0.5 77 1.4 SW 17 19 9 10 1027.1 1027.5 1.0
28/09:30pm 4.0 -0.8 0.5 78 1.4 SW 15 17 8 9 1027.2 1027.6 1.0
28/09:00pm 4.1 -0.2 0.8 79 1.3 SW 13 15 7 8 1027.1 1027.5 1.0
28/08:30pm 4.7 0.4 1.0 77 1.5 SW 13 17 7 9 1026.9 1027.3 1.0
28/08:00pm 4.8 -0.3 0.8 75 1.6 SSW 17 19 9 10 1026.7 1027.1 1.0
28/07:30pm 5.5 0.5 1.1 73 1.8 SSW 17 20 9 11 1026.4 1026.8 1.0
28/07:00pm 5.8 0.5 1.7 75 1.7 SSW 19 22 10 12 1026.3 1026.7 1.0
28/06:30pm 6.0 0.5 1.9 75 1.7 S 20 30 11 16 1026.0 1026.4 1.0
28/06:00pm 6.7 1.0 3.0 77 1.6 S 22 28 12 15 1025.7 1026.1 1.0
28/05:30pm 7.6 1.6 3.5 75 1.8 S 24 30 13 16 1025.4 1025.8 1.0
28/05:00pm 7.9 1.5 3.2 72 2.0 S 26 32 14 17 1025.1 1025.5 1.0
28/04:30pm 8.8 2.6 4.2 73 2.0 S 26 33 14 18 1025.0 1025.4 1.0
28/04:00pm 9.2 3.6 5.6 78 1.7 S 24 30 13 16 1025.0 1025.4 1.0
28/03:30pm 9.0 2.3 5.7 80 1.5 S 30 35 16 19 1024.8 1025.2 1.0
28/03:00pm 9.6 4.3 6.7 82 1.4 SSE 24 35 13 19 1024.8 1025.2 1.0
28/02:30pm 9.7 4.6 7.8 88 0.9 SE 24 30 13 16 1025.0 1025.4 1.0
28/02:00pm 8.7 3.9 7.5 92 0.6 SSE 22 28 12 15 1025.0 1025.4 0.8
28/01:30pm 10.3 6.3 8.9 91 0.7 S 20 24 11 13 1024.9 1025.3 0.6
28/01:00pm 9.0 2.7 7.3 89 0.8 SSW 30 39 16 21 1025.0 1025.4 0.0
28/12:30pm 11.6 7.6 6.5 71 2.4 S 17 26 9 14 1025.6 1026.0 0.0
28/12:00pm 10.3 5.7 5.7 73 2.1 SSW 19 26 10 14 1026.0 1026.4 0.0
28/11:30am 11.1 7.1 6.8 75 2.1 SSW 17 24 9 13 1026.2 1026.6 0.0
28/11:00am 11.1 5.7 6.3 72 2.3 S 24 30 13 16 1026.3 1026.7 0.0
28/10:30am 10.2 5.5 6.2 76 1.9 S 20 28 11 15 1026.2 1026.6 0.0
28/10:00am 9.7 5.4 6.8 82 1.4 SSW 19 26 10 14 1026.4 1026.8 0.0
28/09:30am 9.0 4.4 6.4 84 1.2 SSW 20 26 11 14 1026.2 1026.6 0.0
28/09:00am 8.0 4.0 6.8 92 0.6 SW 17 19 9 10 1026.1 1026.5 3.0
28/08:30am 7.0 2.4 6.4 96 0.3 SW 20 24 11 13 1025.9 1026.3 3.0
28/08:00am 6.4 0.9 6.1 98 0.1 SW 24 28 13 15 1025.6 1026.0 3.0
28/07:30am 5.9 0.3 5.6 98 0.1 SW 24 28 13 15 1025.3 1025.7 3.0
28/07:00am 5.9 1.1 5.6 98 0.1 SW 20 24 11 13 1025.3 1025.7 3.0
28/06:30am 5.6 1.3 5.3 98 0.1 WSW 17 19 9 10 1025.1 1025.5 3.0
28/06:00am 5.8 1.2 5.4 97 0.2 WSW 19 22 10 12 1024.9 1025.3 3.0
28/05:30am 5.6 0.7 5.0 96 0.3 WSW 20 24 11 13 1024.7 1025.0 3.0
28/05:00am 5.9 0.6 5.2 95 0.3 SW 22 28 12 15 1024.4 1024.7 3.0
28/04:30am 5.5 0.1 4.6 94 0.4 SW 22 26 12 14 1024.4 1024.7 3.0
28/04:00am 5.2 0.1 4.2 93 0.4 WSW 20 24 11 13 1024.3 1024.6 3.0
28/03:30am 5.9 0.9 4.4 90 0.7 SW 20 22 11 12 1024.2 1024.5 3.0
28/03:00am 6.5 1.2 4.8 89 0.7 SW 22 24 12 13 1024.4 1024.7 3.0
28/02:30am 6.2 1.4 4.7 90 0.7 SW 19 22 10 12 1024.6 1024.9 3.0
28/02:00am 6.6 1.3 5.1 90 0.7 SW 22 24 12 13 1024.5 1024.8 3.0
28/01:30am 7.0 2.3 5.3 89 0.8 SW 19 22 10 12 1024.6 1024.9 3.0
28/01:00am 7.5 2.0 5.8 89 0.8 SSW 24 28 13 15 1024.3 1024.6 3.0
28/12:30am 7.4 2.6 5.7 89 0.8 SW 20 26 11 14 1024.2 1024.5 3.0
28/12:00am 7.2 2.6 5.5 89 0.8 SSW 19 20 10 11 1024.1 1024.4 3.0
 
Date/Time
EST
Temp
°C
App
Temp
°C
Dew
Point
Rel
Hum
%
Delta-T
°C
Wind Press
QNH
hPa
Press
MSL
hPa
Rain
since 9 am
mm
Dir
 
Spd
km/h
Gust
km/h
Spd
kts
Gust
kts
27/11:30pm 7.2 2.4 5.7 90 0.7 SSW 20 24 11 13 1024.3 1024.6 3.0
27/11:00pm 7.5 2.7 5.8 89 0.8 SSW 20 24 11 13 1024.3 1024.6 3.0
27/10:30pm 7.6 2.2 6.5 93 0.5 SSW 24 28 13 15 1024.1 1024.4 3.0
27/10:00pm 7.8 2.6 7.2 96 0.3 SSW 24 28 13 15 1024.0 1024.3 3.0
27/09:30pm 8.1 4.0 7.7 97 0.2 SSW 19 22 10 12 1023.9 1024.2 3.0
27/09:00pm 8.6 5.0 8.2 97 0.2 S 17 20 9 11 1023.6 1024.0 3.0
27/08:30pm 8.9 4.8 8.5 97 0.2 S 20 22 11 12 1023.4 1023.8 3.0
27/08:00pm 9.0 5.0 8.4 96 0.3 S 19 20 10 11 1023.2 1023.6 3.0
27/07:30pm 9.1 4.9 8.3 95 0.4 S 20 24 11 13 1022.9 1023.3 3.0
27/07:00pm 9.4 4.3 7.8 90 0.8 S 24 30 13 16 1022.3 1022.7 3.0
27/06:30pm 9.7 5.3 7.6 87 1.0 SSW 20 28 11 15 1021.8 1022.2 3.0
27/06:00pm 9.9 5.0 6.8 81 1.5 SSW 22 24 12 13 1021.5 1021.9 3.0
27/05:30pm 11.1 6.7 7.6 79 1.7 SSW 20 26 11 14 1021.0 1021.3 3.0
27/05:00pm 11.4 5.5 7.5 77 1.9 S 28 33 15 18 1020.7 1021.0 3.0
27/04:30pm 12.3 6.2 6.6 68 2.8 SSW 28 32 15 17 1020.5 1020.8 3.0
27/04:00pm 13.2 7.7 7.4 68 2.9 SW 26 33 14 18 1020.3 1020.6 3.0
27/03:30pm 13.0 6.6 7.0 67 2.9 SW 30 35 16 19 1020.1 1020.4 3.0
27/03:00pm 12.4 7.3 7.7 73 2.3 SW 24 30 13 16 1020.0 1020.3 3.0
27/02:30pm 12.4 8.4 8.1 75 2.1 SW 19 26 10 14 1019.7 1020.1 3.0
27/02:00pm 12.0 7.9 8.7 80 1.7 SW 20 28 11 15 1020.1 1020.4 3.0
27/01:30pm 11.4 7.5 9.3 87 1.1 WSW 20 28 11 15 1020.4 1020.7 3.0
27/01:00pm 12.2 8.1 8.7 79 1.8 WSW 20 28 11 15 1020.4 1020.7 0.0
27/12:30pm 12.9 9.8 10.3 84 1.4 W 17 22 9 12 1020.9 1021.2 0.0
27/12:00pm 11.5 8.8 10.2 92 0.7 W 15 19 8 10 1021.2 1021.5 0.0
27/11:30am 10.9 8.6 10.3 96 0.3 W 13 17 7 9 1021.5 1021.9 0.0
27/11:00am 9.3 6.6 8.8 97 0.2 W 13 17 7 9 1021.6 1022.0 0.0
27/10:30am 7.8 5.5 7.4 97 0.2 WNW 9 11 5 6 1021.7 1022.1 0.0
27/10:00am 7.9 5.6 7.3 96 0.3 W 9 13 5 7 1021.8 1022.2 0.0
27/09:30am 7.0 3.6 6.1 94 0.4 WSW 13 19 7 10 1021.6 1022.0 0.0
27/09:00am 6.7 3.2 5.3 91 0.6 WSW 13 15 7 8 1021.7 1022.1 0.0
27/08:30am 8.1 5.2 6.7 91 0.7 SSW 11 15 6 8 1021.9 1022.3 0.0
27/08:00am 7.3 3.5 5.9 91 0.6 SSW 15 17 8 9 1021.7 1022.1 0.0
27/07:30am 6.3 2.0 5.1 92 0.5 SW 17 20 9 11 1021.3 1021.6 0.0
27/07:00am 6.7 3.6 5.7 93 0.5 SW 11 13 6 7 1021.2 1021.5 0.0
27/06:30am 7.0 3.6 5.9 93 0.5 SW 13 15 7 8 1020.9 1021.2 0.0
27/06:00am 6.7 2.8 5.3 91 0.6 WSW 15 15 8 8 1020.4 1020.7 0.0
27/05:30am 6.7 3.5 5.3 91 0.6 SW 11 13 6 7 1020.5 1020.8 0.0
27/05:00am 7.8 5.1 5.6 86 1.0 WSW 9 11 5 6 1020.3 1020.6 0.0
27/04:30am 8.0 5.8 6.3 89 0.8 WSW 7 9 4 5 1020.4 1020.7 0.0
27/04:00am 7.2 4.5 5.7 90 0.7 WSW 9 11 5 6 1020.7 1021.0 0.0
27/03:30am 7.8 5.6 6.3 90 0.7 W 7 9 4 5 1020.8 1021.1 0.0
27/03:00am 7.9 6.3 6.2 89 0.8 NE 4 7 2 4 1021.2 1021.5 0.0
27/02:30am 8.1 6.5 6.2 88 0.9 ENE 4 6 2 3 1021.3 1021.6 0.0
27/02:00am 7.8 5.8 6.1 89 0.8 NNE 6 6 3 3 1021.4 1021.7 0.0
27/01:30am 9.0 7.4 6.3 83 1.3 NNE 4 4 2 2 1021.5 1021.9 0.0
27/01:00am 9.3 8.0 6.2 81 1.4 NNE 2 2 1 1 1021.9 1022.3 0.0
27/12:30am 9.3 7.3 6.4 82 1.4 NNE 6 6 3 3 1022.0 1022.4 0.0
27/12:00am 8.8 6.3 6.4 85 1.1 NNE 9 9 5 5 1022.2 1022.6 0.0
 
Date/Time
EST
Temp
°C
App
Temp
°C
Dew
Point
Rel
Hum
%
Delta-T
°C
Wind Press
QNH
hPa
Press
MSL
hPa
Rain
since 9 am
mm
Dir
 
Spd
km/h
Gust
km/h
Spd
kts
Gust
kts
26/11:30pm 9.0 6.5 6.6 85 1.1 ENE 9 11 5 6 1022.6 1023.0 0.0
26/11:00pm 8.8 5.9 6.3 84 1.2 ESE 11 13 6 7 1022.7 1023.1 0.0
26/10:30pm 9.4 6.1 6.5 82 1.4 E 13 15 7 8 1022.9 1023.3 0.0
26/10:00pm 9.3 6.8 6.4 82 1.4 ESE 9 11 5 6 1023.0 1023.4 0.0
26/09:30pm 9.3 6.7 6.0 80 1.5 ESE 9 9 5 5 1023.2 1023.6 0.0
26/09:00pm 9.8 7.6 6.3 79 1.6 ESE 7 7 4 4 1023.3 1023.7 0.0
26/08:30pm 9.8 7.7 6.5 80 1.6 E 7 7 4 4 1023.3 1023.7 0.0
26/08:00pm 9.4 7.0 6.8 84 1.2 ESE 9 11 5 6 1023.2 1023.6 0.0
26/07:30pm 9.7 7.1 6.1 78 1.7 ESE 9 11 5 6 1023.3 1023.7 0.0
26/07:00pm 10.0 7.8 6.2 77 1.8 ESE 7 9 4 5 1023.2 1023.6 0.0
26/06:30pm 10.1 7.5 6.1 76 1.9 ESE 9 9 5 5 1023.1 1023.5 0.0
26/06:00pm 10.2 7.7 6.7 79 1.7 E 9 11 5 6 1023.0 1023.4 0.0
26/05:30pm 10.4 8.0 7.1 80 1.6 E 9 9 5 5 1022.9 1023.3 0.0
26/05:00pm 10.7 7.6 7.2 79 1.7 E 13 15 7 8 1022.7 1023.1 0.0
26/04:30pm 10.9 7.4 7.0 77 1.9 E 15 19 8 10 1022.6 1023.0 0.0
26/04:00pm 11.3 8.2 7.2 76 2.0 E 13 15 7 8 1022.6 1023.0 0.0
26/03:30pm 11.5 8.3 7.0 74 2.2 E 13 15 7 8 1022.9 1023.3 0.0
26/03:00pm 11.7 9.4 7.6 76 2.0 E 9 15 5 8 1022.9 1023.3 0.0
26/02:30pm 11.7 9.1 7.8 77 1.9 ESE 11 17 6 9 1023.0 1023.4 0.0
26/02:00pm 12.2 9.3 8.3 77 1.9 E 13 20 7 11 1023.0 1023.4 0.0
26/01:30pm 11.4 8.0 7.5 77 1.9 E 15 19 8 10 1023.4 1023.8 0.0
26/01:00pm 11.0 6.8 7.3 78 1.8 ESE 19 24 10 13 1023.5 1023.9 0.0
26/12:30pm 10.9 6.9 8.1 83 1.4 ESE 19 22 10 12 1024.0 1024.3 0.0
26/12:00pm 10.1 6.3 7.5 84 1.3 E 17 20 9 11 1024.8 1025.2 0.0
26/11:30am 10.0 6.2 7.6 85 1.2 E 17 22 9 12 1025.3 1025.7 0.0
26/11:00am 9.3 4.8 6.9 85 1.1 E 20 24 11 13 1025.5 1025.9 0.0
26/10:30am 9.0 4.0 6.6 85 1.1 E 22 28 12 15 1025.7 1026.1 0.0
26/10:00am 8.8 4.2 6.4 85 1.1 E 20 26 11 14 1025.8 1026.2 0.0
26/09:30am 8.6 4.2 6.4 86 1.0 E 19 22 10 12 1026.1 1026.5 0.0
26/09:00am 8.3 3.6 6.1 86 1.0 E 20 24 11 13 1026.0 1026.4 0.0
26/08:30am 7.9 3.4 5.9 87 0.9 E 19 22 10 12 1026.1 1026.5 0.0
26/08:00am 7.7 2.9 5.7 87 0.9 E 20 28 11 15 1025.9 1026.3 0.0
26/07:30am 7.6 2.0 5.6 87 0.9 E 24 26 13 14 1025.7 1026.1 0.0
26/07:00am 7.3 1.7 5.4 88 0.9 ESE 24 28 13 15 1025.3 1025.7 0.0
26/06:30am 7.5 1.5 5.3 86 1.0 ESE 26 30 14 16 1025.3 1025.7 0.0
26/06:00am 7.6 1.6 5.1 84 1.1 ESE 26 32 14 17 1025.2 1025.6 0.0
26/05:30am 8.0 1.6 5.3 83 1.2 ESE 28 32 15 17 1025.2 1025.6 0.0
26/05:00am 8.1 2.1 5.2 82 1.3 E 26 32 14 17 1025.2 1025.6 0.0
26/04:30am 8.2 1.8 5.1 81 1.4 E 28 33 15 18 1025.1 1025.5 0.0
26/04:00am 8.3 1.6 5.4 82 1.3 ESE 30 35 16 19 1025.1 1025.5 0.0
26/03:30am 8.4 1.1 5.3 81 1.4 ESE 33 41 18 22 1025.0 1025.4 0.0
26/03:00am 8.5 1.2 5.4 81 1.4 ESE 33 41 18 22 1025.1 1025.5 0.0
26/02:30am 8.4 0.8 5.9 84 1.2 ESE 35 43 19 23 1025.6 1026.0 0.0
26/02:00am 8.2 1.0 6.0 86 1.0 ESE 33 41 18 22 1025.9 1026.3 0.0
26/01:30am 8.1 1.2 6.4 89 0.8 SE 32 37 17 20 1026.4 1026.8 0.0
26/01:00am 8.3 1.4 6.4 88 0.9 SE 32 37 17 20 1026.6 1027.0 0.0
26/12:30am 8.4 2.0 6.9 90 0.7 ESE 30 35 16 19 1026.7 1027.1 0.0
26/12:00am 8.6 2.2 7.1 90 0.7 ESE 30 37 16 20 1026.9 1027.3 0.0
 
Date/Time
EST
Temp
°C
App
Temp
°C
Dew
Point
Rel
Hum
%
Delta-T
°C
Wind Press
QNH
hPa
Press
MSL
hPa
Rain
since 9 am
mm
Dir
 
Spd
km/h
Gust
km/h
Spd
kts
Gust
kts
25/11:30pm 8.3 1.5 6.8 90 0.7 ESE 32 41 17 22 1026.9 1027.3 0.0
25/11:00pm 8.1 1.6 6.7 91 0.7 ESE 30 35 16 19 1027.1 1027.5 0.0

Other Formats:

Comma delimited format used in spreadsheet applications
http://www.bom.gov.au/fwo/IDV60801/IDV60801.95845.axf

JavaScript Object Notation format (JSON) in row-major order
http://www.bom.gov.au/fwo/IDV60801/IDV60801.95845.json